FW4220 Weather Reports


Display with metric or nautical units.
time (UTC)temp
F
wind
direction
speed
MPH
gust
MPH
rain 1hr
in
rain 24hr
in
rain mn
in
humidity
%
barometer
mb
20221206013006 74 331 0.0 1.0 0.00 1.74 0.92 100 1013.6
20221206011510 74 331 0.0 1.0 0.00 1.74 0.92 100 1013.7
20221206010015 74 331 0.0 2.0 0.00 1.74 0.92 100 1013.5
20221206004504 74 10 0.0 0.0 0.00 1.75 0.92 100 1013.5
20221206003001 74 10 0.0 1.0 0.00 1.75 0.92 100 1013.3
20221206001602 74 9 0.0 1.0 0.00 1.75 0.92 100 1013.1
20221206000058 74 9 0.0 1.0 0.00 1.75 0.92 100 1012.9
20221205234556 74 10 0.0 1.0 0.00 1.77 0.92 100 1012.7
20221205233059 74 11 0.0 1.0 0.00 1.77 0.92 100 1012.4
20221205231551 74 11 0.0 0.0 0.00 1.77 0.92 100 1012.1
20221205230051 74 11 0.0 0.0 0.00 1.77 0.92 100 1011.9
20221205224551 74 11 0.0 1.0 0.00 1.80 0.92 100 1011.7
20221205223048 74 11 0.0 1.0 0.00 1.80 0.92 100 1011.6
20221205221547 74 11 0.0 2.0 0.00 1.80 0.92 100 1011.4
20221205220049 74 14 1.0 3.0 0.00 1.80 0.92 100 1011.1
20221205214545 75 21 0.0 2.0 0.00 1.80 0.92 100 1010.9
20221205213044 75 19 1.0 3.0 0.05 1.80 0.92 99 1010.6
20221205211548 75 6 1.0 2.0 0.09 1.80 0.92 99 1010.5
20221205210044 76 345 0.0 1.0 0.09 1.80 0.92 100 1010.0
20221205204543 76 345 0.0 1.0 0.09 1.80 0.92 99 1009.9
20221205203043 76 335 0.0 1.0 0.04 1.76 0.87 100 1010.0
20221205201542 76 335 0.0 2.0 0.00 1.72 0.83 99 1009.9
20221205200042 75 335 0.0 1.0 0.01 1.72 0.83 99 1009.8
20221205194549 75 335 0.0 1.0 0.04 1.72 0.83 100 1009.9
20221205193051 75 341 0.0 1.0 0.19 1.72 0.83 100 1010.1
20221205191539 74 341 0.0 1.0 0.24 1.72 0.83 100 1010.1
20221205190041 74 339 0.0 1.0 0.43 1.71 0.83 100 1010.2
20221205184538 74 317 0.0 2.0 0.73 1.67 0.79 100 1010.0
20221205183046 74 271 1.0 4.0 0.62 1.53 0.65 99 1010.3
20221205181539 75 330 0.0 2.0 0.56 1.47 0.59 98 1010.3
20221205180039 76 30 0.0 2.0 0.34 1.24 0.38 96 1010.2
20221205174546 77 29 2.0 7.0 0.05 0.94 0.06 93 1010.1
20221205173037 78 8 5.0 10.0 0.02 0.91 0.02 93 1009.9
20221205171534 78 360 3.0 7.0 0.02 0.91 0.02 94 1009.9
20221205170039 79 4 3.0 5.0 0.02 0.91 0.02 92 1009.8
20221205164535 79 6 4.0 10.0 0.01 0.89 0.01 91 1010.0
20221205163032 81 354 4.0 7.0 0.01 0.89 0.01 89 1009.9
20221205161532 81 1 3.0 10.0 0.01 0.89 0.01 89 1010.1
20221205160037 82 19 4.0 9.0 0.00 0.88 0.00 87 1009.9
20221205154532 82 25 4.0 11.0 0.00 0.88 0.00 87 1010.0
20221205153031 82 13 4.0 10.0 0.00 0.88 0.00 89 1010.3
20221205151532 82 14 3.0 8.0 0.00 0.88 0.00 88 1010.4
20221205150036 80 1 2.0 6.0 0.00 0.88 0.00 90 1010.5
20221205144538 80 16 3.0 6.0 0.00 0.88 0.00 90 1010.5
20221205143028 81 353 3.0 6.0 0.00 0.88 0.00 88 1010.5
20221205141527 81 351 3.0 6.0 0.00 0.88 0.00 86 1010.6
20221205140026 82 360 4.0 8.0 0.00 0.88 0.00 86 1010.6
20221205134537 82 34 3.0 6.0 0.00 0.88 0.00 85 1010.5
20221205133033 82 359 2.0 6.0 0.00 0.88 0.00 87 1010.5
20221205131528 83 353 3.0 5.0 0.00 0.88 0.00 86 1010.7
20221205130021 81 5 2.0 4.0 0.00 0.88 0.00 88 1010.7
20221205124520 81 315 1.0 3.0 0.00 0.88 0.00 90 1010.8
20221205123015 79 325 0.0 2.0 0.00 0.88 0.00 95 1010.9
20221205121521 77 345 0.0 4.0 0.00 0.88 0.00 99 1010.9
20221205120009 76 184 0.0 2.0 0.00 0.88 0.00 100 1011.0
20221205114508 75 188 1.0 4.0 0.00 0.88 0.00 100 1011.1
20221205113002 74 176 0.0 3.0 0.00 0.88 0.00 100 1011.1
20221205111503 73 186 0.0 2.0 0.00 0.88 0.00 100 1011.2
20221205110002 73 240 0.0 1.0 0.00 0.88 0.00 100 1011.1
20221205103044 72 238 0.0 0.0 0.00 0.88 0.70 100 1010.9
20221205101543 72 220 0.0 1.0 0.00 0.88 0.70 100 1010.6
20221205100042 72 209 0.0 0.0 0.00 0.88 0.70 100 1010.5
20221205094539 72 209 1.0 2.0 0.00 0.88 0.70 100 1010.3
20221205093038 72 212 0.0 1.0 0.00 0.88 0.70 100 1010.1
20221205091548 72 212 0.0 2.0 0.00 0.88 0.70 100 1009.8
20221205090037 72 222 0.0 1.0 0.00 0.88 0.70 100 1009.6
20221205084534 72 229 0.0 1.0 0.00 0.88 0.70 100 1009.3
20221205083033 72 229 0.0 1.0 0.01 0.88 0.70 100 1009.0
20221205081536 72 197 0.0 0.0 0.02 0.88 0.70 100 1008.8
20221205080043 72 196 0.0 0.0 0.02 0.88 0.70 100 1008.7
20221205074536 72 197 0.0 0.0 0.03 0.88 0.70 100 1008.5
20221205073031 72 197 0.0 0.0 0.04 0.87 0.69 100 1008.4
20221205071529 72 197 0.0 0.0 0.04 0.87 0.69 100 1008.4
20221205070131 72 197 0.0 0.0 0.04 0.86 0.68 100 1008.3
20221205064534 72 197 0.0 0.0 0.06 0.85 0.67 100 1008.4
20221205063026 72 197 0.0 0.0 0.08 0.83 0.65 100 1008.5
20221205061534 72 196 0.0 0.0 0.11 0.83 0.65 100 1008.6
20221205060024 72 203 0.0 2.0 0.15 0.81 0.63 100 1008.8
20221205054528 72 201 1.0 2.0 0.18 0.80 0.61 100 1008.9
20221205053020 72 333 0.0 1.0 0.21 0.76 0.56 100 1009.1
20221205051519 72 333 0.0 1.0 0.22 0.72 0.54 100 1009.3
20221205050017 72 314 0.0 0.0 0.20 0.66 0.48 100 1009.3
20221205044516 72 241 0.0 0.0 0.20 0.61 0.43 100 1009.6
20221205043014 72 240 0.0 1.0 0.19 0.54 0.35 100 1009.7
20221205041513 72 238 0.0 2.0 0.30 0.50 0.31 100 1009.8
20221205040012 72 6 0.0 3.0 0.28 0.46 0.28 100 1009.8
20221205034515 72 142 5.0 10.0 0.24 0.44 0.24 100 1009.9
20221205033008 73 162 4.0 11.0 0.16 0.36 0.16 100 1010.0
20221205031506 74 177 2.0 4.0 0.02 0.22 0.02 100 1010.1
20221205030106 74 87 1.0 2.0 0.02 0.20 0.00 100 1010.2
20221205024607 74 27 0.0 1.0 0.04 0.23 0.20 100 1010.3
20221205023119 74 13 0.0 2.0 0.07 0.23 0.20 100 1010.4
20221205021604 75 352 1.0 4.0 0.08 0.22 0.20 100 1010.3
20221205020103 75 20 0.0 2.0 0.09 0.20 0.18 100 1010.6
20221205014600 75 358 0.0 4.0 0.08 0.20 0.17 99 1010.4